Purfleet, United Kingdom
Current Conditions -  °F | °C
As of 1:20 PM on Wednesday 26 Nov 2014 (Local Time) from EGLC Reporting Station
Drizzle Drizzle  
Wind Chill: 46°   Ceiling: 300
Heat Index: 48°   Visibility: 1mi
Dew Point: 48°   Wind: 5mph
Humidity: 100%   Direction: 60°ENE
Pressure: 29.83"   Gusts: NA
Location:  51.48°N, 0.24°E
Report Text: EGLC 261320Z 06004KT 1700 -DZ SCT001 BKN003 09/09 Q1010
Loading
Personal Weather Stations






























Interactive Weather Map New forecast layout! Learn more

10-Day Weather Forecast

Advertisements
Track Severe Weather on mobile